Point Mugu Naval Air Station (Naval Base Ventura Co)
KNTD : now visible

Airfield :











YOU CAN JOIN US ON...

 
LOGIN :

Register | Disclaimer

   EN    FR    IT 

 









Legend :    VFR   Marginal VFR   IFR   Intensive IFR   Very Intensive IFR
Visi :
Ceiling :
>= 8 km
>= 3000ft
5 to 8 km
1000 to 3000 ft
1500m to 5 km
500 to 1000 ft
800 to 1500m
200 to 500 ft
< 800m
< 200 ft
Symbols :   Thunderstorms  Fog  Heavy snow  Heavy precipitations  Wind > 20 kt






- Airport Elevation : 13 ft


KNTD - Point Mugu Naval Air Station (Naval Base Ventura Co)

CURRENT METAR :
  • 172352Z 21009KT 5SM HZ BKN007 19/16 A2979 RMK AO2 SLP088 T01940156 10211 20194 56009 VISNO N $

EXPIRED METARs :
  • 172252Z 21010KT 5SM HZ BKN008 21/16 A2979 RMK AO2 SLP090 T02060156 VISNO N $
  • 172152Z 19013KT 5SM HZ OVC007 21/16 A2980 RMK AO2 SLP091 T02060156 CHINO N VISNO N $
  • 172052Z 19013KT 4SM HZ BKN005 20/16 A2981 RMK AO2 SLP097 T02000156 56006 VISNO N $

TAF COR TAF KNTD
Valid from the 17 at 15:00 until the 18 at 15:00 UTC


1715/1815 VRB06KT 0800 FG OVC003 QNH2977INS
TEMPO 1715/1718 15011KT 4800 BR
BECMG 1716/1718 18011KT 8000 HZ SCT008 BKN280 QNH2972INS
TEMPO 1718/1800 21015KT 4800 HZ BKN008
FM180000 VRB05KT 3200 HZ OVC005 QNH2972INS
TEMPO 1801/1805 0800 FG OVC002
BECMG 1805/1807 VRB03KT 1600 OVC002 QNH2973INS
TEMPO 1810/1815 0800 FG T22/1622Z T16/1712Z COR 1638 FS30016
KZLA FIR / North America



MET'MAP, your aeronautical weather chart ! - Copyright ORBIFLY December 2007 - Disclaimer

ORBIFLY MET'MAP TEAM :

Programming & Development : Alexandra Zaïnal
Concept & original design : Baudouin d'Aumeries
Assistance for programming : Marc-Olivier Méhu
Technical & hardware support : Manuel Goepfert

Contact : metmap@orbifly.com




SOURCES & CREDITS :

   NOAA       Earth
Advisory